Time;durP1;ratioP1;P1;durP2;ratioP2;P2;SDS_P1;SDS_P2;PMS_P1;PMS_P2;Temp;Humidity;BMP_temperature;BMP_pressure;BME280_temperature;BME280_humidity;BME280_pressure;Samples;Min_cycle;Max_cycle;Signal;HPM_P1;HPM_P2
2023/06/22 00:00:15;;;;;;;6.07;5.57;;;23.50;99.90;;;;;;5011482;28;20249;-74
2023/06/22 00:02:43;;;;;;;7.82;5.90;;;23.50;99.90;;;;;;5023110;28;20218;-74
2023/06/22 00:05:10;;;;;;;6.32;5.82;;;23.50;99.90;;;;;;5015080;28;20208;-74
2023/06/22 00:07:38;;;;;;;6.10;5.50;;;23.50;99.90;;;;;;5015724;28;20732;-74
2023/06/22 00:10:07;;;;;;;6.63;5.38;;;23.50;99.90;;;;;;5023757;28;20229;-74
2023/06/22 00:12:35;;;;;;;6.00;5.55;;;23.50;99.90;;;;;;5011154;28;20229;-74
2023/06/22 00:15:04;;;;;;;6.80;6.22;;;23.50;99.90;;;;;;5019917;28;20226;-74
2023/06/22 00:17:33;;;;;;;9.07;6.03;;;23.50;99.90;;;;;;5018740;28;20259;-74
2023/06/22 00:20:05;;;;;;;9.23;5.85;;;23.50;99.90;;;;;;5012725;28;20238;-74
2023/06/22 00:22:38;;;;;;;6.57;5.90;;;23.50;99.90;;;;;;5023865;28;20254;-74
2023/06/22 00:25:07;;;;;;;9.27;6.60;;;23.50;99.90;;;;;;5014641;28;20573;-75
2023/06/22 00:27:35;;;;;;;9.25;5.88;;;23.50;99.90;;;;;;5015730;28;20233;-74
2023/06/22 00:30:04;;;;;;;8.57;6.30;;;23.50;99.90;;;;;;5022888;28;20806;-74
2023/06/22 00:32:33;;;;;;;6.45;5.95;;;23.50;99.90;;;;;;5011063;28;20312;-74
2023/06/22 00:35:01;;;;;;;7.07;6.35;;;23.60;99.90;;;;;;5019695;28;20637;-74
2023/06/22 00:37:29;;;;;;;6.85;6.20;;;23.60;99.90;;;;;;5018026;28;20210;-75
2023/06/22 00:39:57;;;;;;;6.13;5.60;;;23.50;99.90;;;;;;5012623;28;20206;-74
2023/06/22 00:42:25;;;;;;;6.28;5.78;;;23.50;99.90;;;;;;5009142;28;20245;-74
2023/06/22 00:44:53;;;;;;;7.45;5.90;;;23.60;99.90;;;;;;5019855;28;20294;-74
2023/06/22 00:47:21;;;;;;;8.23;5.82;;;23.60;99.90;;;;;;5017233;28;20234;-74
2023/06/22 00:49:51;;;;;;;6.43;5.85;;;23.60;99.90;;;;;;5013943;28;20203;-74
2023/06/22 00:52:20;;;;;;;10.63;6.47;;;23.60;99.90;;;;;;5012268;28;20583;-74
2023/06/22 00:54:48;;;;;;;7.93;5.57;;;23.50;99.90;;;;;;5024394;28;20281;-74
2023/06/22 00:57:16;;;;;;;9.48;6.50;;;23.50;99.90;;;;;;5019333;28;20245;-74
2023/06/22 00:59:44;;;;;;;8.15;6.25;;;23.50;99.90;;;;;;5018359;28;20230;-74
2023/06/22 01:02:12;;;;;;;7.20;6.53;;;23.50;99.90;;;;;;5026941;28;20201;-74
2023/06/22 01:04:40;;;;;;;7.13;6.47;;;23.40;99.90;;;;;;5014281;28;20194;-74
2023/06/22 01:07:14;;;;;;;13.80;6.95;;;23.30;99.90;;;;;;5022579;28;20195;-74
2023/06/22 01:09:46;;;;;;;7.40;6.68;;;23.20;99.90;;;;;;5022975;28;20230;-74
2023/06/22 01:12:14;;;;;;;10.57;6.93;;;23.00;99.90;;;;;;5013773;28;20227;-74
2023/06/22 01:14:44;;;;;;;12.02;7.20;;;22.90;99.90;;;;;;5025626;28;20323;-74
2023/06/22 01:17:12;;;;;;;8.95;7.55;;;22.80;99.90;;;;;;5019015;28;20655;-74
2023/06/22 01:19:46;;;;;;;8.07;7.38;;;22.70;99.90;;;;;;5018281;28;20711;-74
2023/06/22 01:22:17;;;;;;;8.20;7.50;;;22.70;99.90;;;;;;5026670;28;20214;-74
2023/06/22 01:24:51;;;;;;;13.05;7.00;;;22.60;99.90;;;;;;5014338;28;20206;-74
2023/06/22 01:27:27;;;;;;;11.50;7.60;;;22.60;99.90;;;;;;5020726;28;20233;-74
2023/06/22 01:30:00;;;;;;;10.73;7.63;;;22.50;99.90;;;;;;5024483;28;20562;-74
2023/06/22 01:32:29;;;;;;;12.27;8.57;;;22.50;99.90;;;;;;5013895;28;20292;-74
2023/06/22 01:34:58;;;;;;;10.30;8.15;;;22.40;99.90;;;;;;5022777;28;20210;-74
2023/06/22 01:37:25;;;;;;;8.88;7.95;;;22.40;99.90;;;;;;5020585;28;20194;-74
2023/06/22 01:43:40;;;;;;;13.80;7.88;;;22.30;99.90;;;;;;5023766;28;20638;-74
2023/06/22 01:46:10;;;;;;;9.70;7.35;;;22.30;99.90;;;;;;5029213;28;20195;-74
2023/06/22 01:48:38;;;;;;;10.88;8.60;;;22.30;99.90;;;;;;5029866;28;20229;-74
2023/06/22 01:51:06;;;;;;;9.65;8.75;;;22.20;99.90;;;;;;5029578;28;20244;-74
2023/06/22 01:53:34;;;;;;;9.63;8.43;;;22.20;99.90;;;;;;5029736;28;20256;-74
2023/06/22 01:56:01;;;;;;;8.88;7.93;;;22.20;99.90;;;;;;5029210;28;20198;-74
2023/06/22 01:58:31;;;;;;;13.55;8.98;;;22.20;99.90;;;;;;5025739;28;20214;-74
2023/06/22 02:01:03;;;;;;;9.40;8.57;;;22.20;99.90;;;;;;5016393;28;20237;-74
2023/06/22 02:03:34;;;;;;;11.13;8.95;;;22.20;99.90;;;;;;5024467;28;20577;-74
2023/06/22 02:06:04;;;;;;;9.70;8.80;;;22.20;99.90;;;;;;5030329;28;20692;-74
2023/06/22 02:08:36;;;;;;;11.88;9.57;;;22.20;99.90;;;;;;5032721;28;20197;-74
2023/06/22 02:11:04;;;;;;;9.63;8.68;;;22.20;99.90;;;;;;5032629;28;20248;-74
2023/06/22 02:13:32;;;;;;;10.55;9.55;;;22.20;99.90;;;;;;5032579;28;20272;-74
2023/06/22 02:16:00;;;;;;;9.77;8.88;;;22.20;99.90;;;;;;5031903;28;20268;-74
2023/06/22 02:18:28;;;;;;;10.32;9.32;;;22.10;99.90;;;;;;5015929;28;20635;-74
2023/06/22 02:20:57;;;;;;;9.43;8.57;;;22.20;99.90;;;;;;5032637;28;20202;-74
2023/06/22 02:23:25;;;;;;;10.38;9.43;;;22.20;99.90;;;;;;5032325;28;20225;-74
2023/06/22 02:25:53;;;;;;;10.48;9.50;;;22.20;99.90;;;;;;5031728;28;20229;-74
2023/06/22 02:28:21;;;;;;;10.52;9.13;;;22.20;99.90;;;;;;5032246;28;20252;-75
2023/06/22 02:30:49;;;;;;;17.90;9.43;;;22.20;99.90;;;;;;5032318;28;20221;-75
2023/06/22 02:33:17;;;;;;;11.07;9.43;;;22.10;99.90;;;;;;5031644;28;20218;-74
2023/06/22 02:35:48;;;;;;;11.73;9.70;;;22.10;99.90;;;;;;5031417;28;20206;-74
2023/06/22 02:38:19;;;;;;;10.80;9.80;;;22.20;99.90;;;;;;5030495;28;20206;-74
2023/06/22 02:40:47;;;;;;;11.50;9.82;;;22.10;99.90;;;;;;5032296;28;20198;-74
2023/06/22 02:43:15;;;;;;;12.55;8.77;;;22.10;99.90;;;;;;5031749;28;20242;-75
2023/06/22 02:45:43;;;;;;;10.80;8.82;;;22.10;99.90;;;;;;5031207;28;20198;-74
2023/06/22 02:48:11;;;;;;;10.70;9.60;;;22.10;99.90;;;;;;5031904;28;20206;-74
2023/06/22 02:50:39;;;;;;;10.90;9.98;;;22.10;99.90;;;;;;5032202;28;20202;-74
2023/06/22 02:53:07;;;;;;;10.65;9.75;;;22.00;99.90;;;;;;5031755;28;20268;-74
2023/06/22 02:55:36;;;;;;;10.98;9.98;;;22.00;99.90;;;;;;5031107;28;20252;-74
2023/06/22 02:58:05;;;;;;;10.70;9.63;;;22.00;99.90;;;;;;5031470;28;20240;-74
2023/06/22 03:00:32;;;;;;;11.95;10.02;;;22.00;99.90;;;;;;5031894;28;20250;-74
2023/06/22 03:03:01;;;;;;;10.23;9.30;;;22.00;99.90;;;;;;5029541;28;20263;-74
2023/06/22 03:05:29;;;;;;;10.55;9.55;;;21.90;99.90;;;;;;5024284;28;20202;-74
2023/06/22 03:07:57;;;;;;;10.57;9.50;;;21.90;99.90;;;;;;5013620;28;20264;-74
2023/06/22 03:10:25;;;;;;;12.57;9.23;;;21.90;99.90;;;;;;5027478;28;20668;-74
2023/06/22 03:12:55;;;;;;;11.60;9.93;;;21.90;99.90;;;;;;5028301;28;20228;-74
2023/06/22 03:15:24;;;;;;;10.25;9.30;;;21.80;99.90;;;;;;5027623;28;20210;-74
2023/06/22 03:17:53;;;;;;;13.35;9.88;;;21.80;99.90;;;;;;5028188;28;20248;-74
2023/06/22 03:20:21;;;;;;;10.35;9.38;;;21.80;99.90;;;;;;5028335;28;20221;-74
2023/06/22 03:22:49;;;;;;;10.93;9.85;;;21.80;99.90;;;;;;5027710;28;20249;-74
2023/06/22 03:25:17;;;;;;;10.95;9.85;;;21.70;99.90;;;;;;5027498;28;20198;-74
2023/06/22 03:27:45;;;;;;;9.45;8.75;;;21.70;99.90;;;;;;5028281;28;20229;-74
2023/06/22 03:30:14;;;;;;;11.43;10.27;;;21.70;99.90;;;;;;5027820;28;20199;-74
2023/06/22 03:32:43;;;;;;;11.30;10.30;;;21.70;99.90;;;;;;5027744;28;20655;-74
2023/06/22 03:35:13;;;;;;;10.63;9.73;;;21.70;99.90;;;;;;5027050;28;20221;-74
2023/06/22 03:37:42;;;;;;;11.40;10.20;;;21.60;99.90;;;;;;5027812;28;20232;-74
2023/06/22 03:40:10;;;;;;;10.75;9.85;;;21.60;99.90;;;;;;5026632;28;20225;-74
2023/06/22 03:42:38;;;;;;;10.07;9.25;;;21.60;99.90;;;;;;5027629;28;20229;-74
2023/06/22 03:45:07;;;;;;;14.10;10.30;;;21.50;99.90;;;;;;5027069;28;20198;-74
2023/06/22 03:47:38;;;;;;;12.05;10.90;;;21.50;99.90;;;;;;5027620;28;20201;-74
2023/06/22 03:50:07;;;;;;;10.88;9.40;;;21.40;99.90;;;;;;5027602;28;20290;-74
2023/06/22 03:52:35;;;;;;;11.32;10.40;;;21.40;99.90;;;;;;5027518;28;20246;-74
2023/06/22 03:55:03;;;;;;;12.80;10.50;;;21.40;99.90;;;;;;5027108;28;20229;-75
2023/06/22 03:57:31;;;;;;;11.35;10.18;;;21.40;99.90;;;;;;5027684;28;20198;-74
2023/06/22 03:59:59;;;;;;;11.43;10.43;;;21.40;99.90;;;;;;5027814;28;20253;-74
2023/06/22 04:02:27;;;;;;;11.57;10.57;;;21.40;99.90;;;;;;5011452;28;20190;-74
2023/06/22 04:04:56;;;;;;;13.93;11.48;;;21.40;99.90;;;;;;5026562;28;20206;-74
2023/06/22 04:07:24;;;;;;;12.95;10.77;;;21.40;99.90;;;;;;5027410;28;20660;-74
2023/06/22 04:09:52;;;;;;;11.82;10.65;;;21.40;99.90;;;;;;5028072;28;20229;-74
2023/06/22 04:12:20;;;;;;;12.77;10.77;;;21.40;99.90;;;;;;5027208;28;20577;-74
2023/06/22 04:14:48;;;;;;;12.45;11.25;;;21.40;99.90;;;;;;5027031;28;20222;-74
2023/06/22 04:17:17;;;;;;;12.18;10.73;;;21.40;99.90;;;;;;5027363;28;20206;-74
2023/06/22 04:19:45;;;;;;;12.10;10.98;;;21.40;99.90;;;;;;5027237;28;20253;-74
2023/06/22 04:22:14;;;;;;;11.98;10.73;;;21.40;99.90;;;;;;5027411;28;20229;-74
2023/06/22 04:24:42;;;;;;;11.75;10.70;;;21.40;99.90;;;;;;5026911;28;20194;-74
2023/06/22 04:27:10;;;;;;;12.07;10.95;;;21.50;99.90;;;;;;5027741;28;20245;-74
2023/06/22 04:29:48;;;;;;;12.40;10.90;;;21.40;99.90;;;;;;5029988;28;20225;-74
2023/06/22 04:32:16;;;;;;;10.95;10.00;;;21.40;99.90;;;;;;5028126;28;20675;-74
2023/06/22 04:34:44;;;;;;;13.38;10.55;;;21.40;99.90;;;;;;5026521;28;20294;-74
2023/06/22 04:37:15;;;;;;;11.88;10.68;;;21.40;99.90;;;;;;5028758;28;20213;-74
2023/06/22 04:39:43;;;;;;;11.02;9.93;;;21.50;99.90;;;;;;5030869;28;20213;-74
2023/06/22 04:42:12;;;;;;;11.70;10.40;;;21.60;99.90;;;;;;5031133;28;20743;-74
2023/06/22 04:44:41;;;;;;;12.85;10.85;;;21.60;99.90;;;;;;5030952;28;20725;-74
2023/06/22 04:47:09;;;;;;;12.20;10.95;;;21.60;99.90;;;;;;5031205;28;20718;-74
2023/06/22 04:49:37;;;;;;;14.30;11.20;;;21.70;99.90;;;;;;5031595;28;20665;-74
2023/06/22 04:52:06;;;;;;;12.10;11.00;;;21.70;99.90;;;;;;5031490;28;20633;-74
2023/06/22 04:54:36;;;;;;;12.65;11.35;;;21.70;99.90;;;;;;5031677;28;20202;-74
2023/06/22 04:57:09;;;;;;;12.55;11.38;;;21.70;99.90;;;;;;5031177;28;20249;-74
2023/06/22 04:59:38;;;;;;;12.68;11.50;;;21.70;99.90;;;;;;5031746;28;20281;-74
2023/06/22 05:02:07;;;;;;;12.40;11.18;;;21.70;99.90;;;;;;5031085;28;20672;-74
2023/06/22 05:04:38;;;;;;;11.90;10.77;;;21.60;99.90;;;;;;5030914;28;20630;-74
2023/06/22 05:07:07;;;;;;;12.30;11.10;;;21.60;99.90;;;;;;5030986;28;20194;-74
2023/06/22 05:09:36;;;;;;;13.95;10.98;;;21.60;99.90;;;;;;5028400;28;20682;-74
2023/06/22 05:12:05;;;;;;;12.38;11.18;;;21.60;99.90;;;;;;5022069;28;20610;-74
2023/06/22 05:14:36;;;;;;;12.15;11.02;;;21.60;99.90;;;;;;5026072;28;20232;-74
2023/06/22 05:17:13;;;;;;;13.13;11.07;;;21.60;99.90;;;;;;5014829;28;20563;-74
2023/06/22 05:19:44;;;;;;;13.00;10.98;;;21.60;99.90;;;;;;5024808;28;20206;-74
2023/06/22 05:22:13;;;;;;;12.35;11.27;;;21.60;99.90;;;;;;5027973;28;20226;-74
2023/06/22 05:24:42;;;;;;;12.63;11.40;;;21.60;99.90;;;;;;5027939;28;20206;-74
2023/06/22 05:27:10;;;;;;;15.75;11.70;;;21.70;99.90;;;;;;5030124;28;20259;-74
2023/06/22 05:29:38;;;;;;;12.45;11.35;;;21.70;99.90;;;;;;5030465;28;20253;-75
2023/06/22 05:32:07;;;;;;;12.98;11.77;;;21.70;99.90;;;;;;5031394;28;20237;-73
2023/06/22 05:34:35;;;;;;;13.32;11.93;;;21.80;99.90;;;;;;5027631;28;20221;-71
2023/06/22 05:37:03;;;;;;;7.78;7.05;;;21.80;99.90;;;;;;5028525;28;20202;-69
2023/06/22 05:39:31;;;;;;;7.70;7.00;;;21.90;99.90;;;;;;5035388;28;20214;-70
2023/06/22 05:42:00;;;;;;;6.88;6.38;;;22.00;99.90;;;;;;5033811;28;20214;-70
2023/06/22 05:44:28;;;;;;;7.85;7.25;;;22.10;99.90;;;;;;5072159;22;20232;-55
2023/06/22 05:46:56;;;;;;;9.93;9.02;;;22.30;99.90;;;;;;5087933;28;20224;-61
2023/06/22 05:49:29;;;;;;;10.40;9.32;;;22.40;99.90;;;;;;5093916;28;20252;-60
2023/06/22 05:51:57;;;;;;;9.32;8.45;;;22.50;99.90;;;;;;5083566;28;20201;-61
2023/06/22 05:54:25;;;;;;;10.77;9.70;;;22.60;99.90;;;;;;5092944;28;20192;-60
2023/06/22 05:56:53;;;;;;;9.07;8.25;;;22.70;99.90;;;;;;5095312;28;20200;-60
2023/06/22 05:59:22;;;;;;;10.90;9.80;;;22.70;99.90;;;;;;5091652;28;20631;-56
2023/06/22 06:01:50;;;;;;;10.40;9.23;;;22.80;99.90;;;;;;5085287;28;20253;-57
2023/06/22 06:04:18;;;;;;;12.82;9.90;;;22.80;99.90;;;;;;5089254;28;20204;-56
2023/06/22 06:06:47;;;;;;;10.98;10.00;;;22.90;99.90;;;;;;5093865;28;20231;-59
2023/06/22 06:09:15;;;;;;;10.43;9.50;;;22.90;99.90;;;;;;5095785;28;20302;-58
2023/06/22 06:11:43;;;;;;;9.98;8.98;;;23.00;99.90;;;;;;5094427;28;20690;-59
2023/06/22 06:14:11;;;;;;;9.85;8.95;;;23.10;99.90;;;;;;5085319;28;20200;-59
2023/06/22 06:16:40;;;;;;;11.40;10.18;;;23.20;99.90;;;;;;5086040;28;20246;-55
2023/06/22 06:19:09;;;;;;;13.40;10.05;;;23.20;99.90;;;;;;5085549;28;20286;-56
2023/06/22 06:21:37;;;;;;;10.25;9.30;;;23.30;99.90;;;;;;5077444;28;20220;-55
2023/06/22 06:24:06;;;;;;;10.27;9.27;;;23.30;99.90;;;;;;5081190;28;20212;-57
2023/06/22 06:26:35;;;;;;;10.32;9.27;;;23.40;99.90;;;;;;5088216;28;20258;-58
2023/06/22 06:29:03;;;;;;;9.80;8.75;;;23.50;99.90;;;;;;5082163;28;20697;-56
2023/06/22 06:31:31;;;;;;;10.68;9.65;;;23.50;99.90;;;;;;5091098;28;20196;-56
2023/06/22 06:34:00;;;;;;;11.65;9.65;;;23.60;99.90;;;;;;5091513;28;20200;-58
2023/06/22 06:36:28;;;;;;;9.82;8.82;;;23.70;99.90;;;;;;5091050;28;20721;-60
2023/06/22 06:38:56;;;;;;;12.52;9.40;;;23.70;99.90;;;;;;5100417;22;20790;-59
2023/06/22 06:41:24;;;;;;;12.38;9.02;;;23.70;99.90;;;;;;5096678;28;20227;-59
2023/06/22 06:43:52;;;;;;;9.65;8.75;;;23.80;99.90;;;;;;5092618;28;20265;-59
2023/06/22 06:46:20;;;;;;;9.40;8.50;;;23.80;99.90;;;;;;5094931;28;20204;-58
2023/06/22 06:48:48;;;;;;;10.05;9.15;;;23.90;99.90;;;;;;5091041;28;20324;-58
2023/06/22 06:51:18;;;;;;;10.00;8.63;;;24.00;99.90;;;;;;5070057;28;20209;-58
2023/06/22 06:53:46;;;;;;;11.68;8.85;;;24.10;99.90;;;;;;5069501;28;20212;-58
2023/06/22 06:56:14;;;;;;;9.85;8.95;;;24.20;99.90;;;;;;5077716;28;20205;-58
2023/06/22 06:58:44;;;;;;;9.80;9.00;;;24.30;99.90;;;;;;5071988;28;20228;-59
2023/06/22 07:01:12;;;;;;;11.35;9.30;;;24.30;99.90;;;;;;5076472;28;20307;-59
2023/06/22 07:03:40;;;;;;;10.80;9.75;;;24.30;99.90;;;;;;5071926;28;20208;-58
2023/06/22 07:06:09;;;;;;;10.35;9.27;;;24.30;99.90;;;;;;5072570;28;20224;-58
2023/06/22 07:08:39;;;;;;;12.32;9.43;;;24.30;99.90;;;;;;5089827;28;20709;-57
2023/06/22 07:11:07;;;;;;;12.43;9.77;;;24.30;99.90;;;;;;5071683;28;20292;-58
2023/06/22 07:13:35;;;;;;;13.48;9.65;;;24.30;99.90;;;;;;5071779;28;20196;-59
2023/06/22 07:16:03;;;;;;;11.32;9.40;;;24.30;99.90;;;;;;5073907;28;20246;-59
2023/06/22 07:18:31;;;;;;;10.45;9.55;;;24.30;99.90;;;;;;5074880;28;20260;-61
2023/06/22 07:20:59;;;;;;;13.40;9.52;;;24.40;99.90;;;;;;5072564;28;20260;-61
2023/06/22 07:23:27;;;;;;;12.88;9.73;;;24.40;99.90;;;;;;5066930;28;20609;-61
2023/06/22 07:25:57;;;;;;;12.65;10.18;;;24.50;99.90;;;;;;5070562;28;20200;-61
2023/06/22 07:28:25;;;;;;;11.02;9.85;;;24.50;99.90;;;;;;5074451;28;20262;-61
2023/06/22 07:30:53;;;;;;;14.48;10.48;;;24.60;99.90;;;;;;5079503;28;20200;-62
2023/06/22 07:33:21;;;;;;;13.43;10.18;;;24.60;99.90;;;;;;5086839;28;20301;-61
2023/06/22 07:35:51;;;;;;;11.00;9.90;;;24.70;99.90;;;;;;5076910;28;20236;-61
2023/06/22 07:38:18;;;;;;;12.18;9.77;;;24.80;99.90;;;;;;5086893;28;20218;-61
2023/06/22 07:40:46;;;;;;;11.40;9.68;;;24.90;99.90;;;;;;5077832;28;20200;-62
2023/06/22 07:43:16;;;;;;;14.93;9.48;;;25.00;99.90;;;;;;5081424;28;20809;-62
2023/06/22 07:45:53;;;;;;;10.75;9.65;;;25.10;99.90;;;;;;5085315;28;20241;-62
2023/06/22 07:48:22;;;;;;;11.18;10.15;;;25.10;99.90;;;;;;5074834;28;20671;-61
2023/06/22 07:50:50;;;;;;;12.13;9.85;;;25.20;99.90;;;;;;5083949;28;20250;-62
2023/06/22 07:53:18;;;;;;;11.90;10.73;;;25.30;99.90;;;;;;5081032;28;20611;-62
2023/06/22 07:55:46;;;;;;;12.45;9.50;;;25.40;99.90;;;;;;5076972;28;20205;-61
2023/06/22 07:58:20;;;;;;;12.50;10.82;;;25.50;99.90;;;;;;5073241;28;20209;-62
2023/06/22 08:00:48;;;;;;;11.18;10.10;;;25.60;99.90;;;;;;5085434;28;20201;-61
2023/06/22 08:03:16;;;;;;;11.38;10.25;;;25.70;99.90;;;;;;5082487;28;20220;-62
2023/06/22 08:05:44;;;;;;;11.05;10.05;;;25.70;99.90;;;;;;5081197;28;20196;-62
2023/06/22 08:08:14;;;;;;;10.85;9.85;;;25.80;99.90;;;;;;5088741;28;20200;-62
2023/06/22 08:10:42;;;;;;;15.15;10.40;;;25.90;99.90;;;;;;5077355;28;20196;-62
2023/06/22 08:13:11;;;;;;;13.20;9.70;;;26.00;99.90;;;;;;5075214;28;20201;-62
2023/06/22 08:15:40;;;;;;;13.05;9.98;;;26.10;99.90;;;;;;5088422;28;20294;-62
2023/06/22 08:18:08;;;;;;;11.18;10.15;;;26.20;99.90;;;;;;5078680;28;20274;-61
2023/06/22 08:20:36;;;;;;;9.98;8.98;;;26.30;99.90;;;;;;5089291;28;20656;-62
2023/06/22 08:23:06;;;;;;;10.95;9.45;;;26.40;99.90;;;;;;5082003;28;20208;-62
2023/06/22 08:25:34;;;;;;;10.82;9.90;;;26.50;99.90;;;;;;5082330;28;20208;-61
2023/06/22 08:28:02;;;;;;;11.00;9.90;;;26.70;99.90;;;;;;5091902;28;20258;-62
2023/06/22 08:30:29;;;;;;;11.63;10.20;;;26.80;99.90;;;;;;5079150;28;20228;-62
2023/06/22 08:32:59;;;;;;;9.93;8.88;;;26.90;99.90;;;;;;5087549;28;20630;-62
2023/06/22 08:35:27;;;;;;;13.63;9.80;;;27.00;99.90;;;;;;5086658;28;20225;-61
2023/06/22 08:37:56;;;;;;;11.02;9.93;;;27.10;99.90;;;;;;5093583;28;20200;-62
2023/06/22 08:40:24;;;;;;;12.32;9.60;;;27.20;99.90;;;;;;5078227;28;20223;-62
2023/06/22 08:42:52;;;;;;;10.77;9.88;;;27.20;99.90;;;;;;5087988;28;20273;-62
2023/06/22 08:45:20;;;;;;;11.93;9.57;;;27.30;99.90;;;;;;5085635;28;20204;-62
2023/06/22 08:47:48;;;;;;;13.98;9.77;;;27.40;99.90;;;;;;5079909;28;20745;-62
2023/06/22 08:50:18;;;;;;;18.27;10.52;;;27.50;99.90;;;;;;5091213;28;20255;-62
2023/06/22 08:52:45;;;;;;;11.85;10.80;;;27.50;99.90;;;;;;5080807;28;20226;-62
2023/06/22 08:55:14;;;;;;;10.77;9.77;;;27.60;99.90;;;;;;5084725;28;20197;-61
2023/06/22 08:57:42;;;;;;;10.65;9.60;;;27.70;99.90;;;;;;5088559;28;20204;-62
2023/06/22 09:00:17;;;;;;;10.45;9.40;;;27.70;99.90;;;;;;5077943;28;20282;-62
2023/06/22 09:02:45;;;;;;;11.30;10.10;;;27.80;99.90;;;;;;5088488;28;20794;-62
2023/06/22 09:05:13;;;;;;;10.55;9.50;;;28.00;99.90;;;;;;5084369;28;20205;-62
2023/06/22 09:07:43;;;;;;;10.00;9.02;;;28.10;99.90;;;;;;5080851;28;20245;-62
2023/06/22 09:10:11;;;;;;;10.80;9.70;;;28.10;99.90;;;;;;5091027;28;20257;-61
2023/06/22 09:12:40;;;;;;;11.50;9.73;;;28.10;99.90;;;;;;5079243;28;20289;-62
2023/06/22 09:15:08;;;;;;;9.55;8.85;;;28.20;99.90;;;;;;5084552;28;20275;-61
2023/06/22 09:17:43;;;;;;;9.82;8.50;;;28.20;99.90;;;;;;5088397;28;20206;-62
2023/06/22 09:20:12;;;;;;;10.00;9.00;;;28.40;99.90;;;;;;5077652;28;20252;-62
2023/06/22 09:22:39;;;;;;;10.15;8.30;;;28.60;99.90;;;;;;5088895;28;20217;-62
2023/06/22 09:25:09;;;;;;;10.80;9.10;;;28.80;99.90;;;;;;5083030;28;20192;-62
2023/06/22 09:27:37;;;;;;;13.13;8.88;;;29.00;99.90;;;;;;5080621;28;20201;-62
2023/06/22 09:30:07;;;;;;;9.13;8.25;;;29.10;99.90;;;;;;5090909;28;20220;-62
2023/06/22 09:32:35;;;;;;;10.05;8.30;;;29.10;99.90;;;;;;5078491;28;20740;-62
2023/06/22 09:35:06;;;;;;;9.52;8.38;;;29.20;99.90;;;;;;5085407;28;20258;-62
2023/06/22 09:37:34;;;;;;;9.52;8.18;;;29.20;99.90;;;;;;5073783;28;20228;-62
2023/06/22 09:40:04;;;;;;;9.32;8.25;;;29.40;99.90;;;;;;5090222;28;20227;-62
2023/06/22 09:42:34;;;;;;;10.73;7.78;;;29.50;99.90;;;;;;5077771;28;20301;-62
2023/06/22 09:45:02;;;;;;;10.55;8.27;;;29.60;99.90;;;;;;5085411;28;20235;-62
2023/06/22 09:47:30;;;;;;;12.40;8.00;;;29.80;99.90;;;;;;5085893;28;20235;-62
2023/06/22 09:49:59;;;;;;;8.77;7.90;;;30.10;99.90;;;;;;5077515;28;20224;-63
2023/06/22 09:52:27;;;;;;;11.05;8.40;;;30.30;99.90;;;;;;5077036;28;20203;-62
2023/06/22 09:55:15;;;;;;;8.40;7.65;;;30.50;99.90;;;;;;5083420;28;20287;-62
2023/06/22 09:57:45;;;;;;;10.07;8.75;;;30.60;99.90;;;;;;5087841;28;20203;-62
2023/06/22 10:00:15;;;;;;;9.45;7.57;;;30.50;99.90;;;;;;5076910;28;20307;-62
2023/06/22 10:02:43;;;;;;;8.13;7.40;;;30.50;99.90;;;;;;5087897;28;20227;-62
2023/06/22 10:05:11;;;;;;;8.02;7.32;;;30.50;99.90;;;;;;5082583;28;20196;-62
2023/06/22 10:07:42;;;;;;;9.40;7.47;;;30.60;99.90;;;;;;5079976;28;20200;-62
2023/06/22 10:10:10;;;;;;;8.05;7.25;;;30.80;99.90;;;;;;5090059;28;20251;-63
2023/06/22 10:12:42;;;;;;;9.43;7.65;;;30.90;99.90;;;;;;5078369;28;20192;-62
2023/06/22 10:15:11;;;;;;;7.90;7.20;;;31.20;99.90;;;;;;5083698;28;20193;-62
2023/06/22 10:17:40;;;;;;;8.00;7.10;;;31.30;99.90;;;;;;5086567;28;20287;-63
2023/06/22 10:20:11;;;;;;;8.25;7.57;;;31.10;99.90;;;;;;5076679;28;20231;-63
2023/06/22 10:22:40;;;;;;;9.23;7.75;;;31.10;99.90;;;;;;5087961;28;20224;-63
2023/06/22 10:25:09;;;;;;;8.60;7.15;;;31.30;99.90;;;;;;5082137;28;20278;-63
2023/06/22 10:27:39;;;;;;;7.97;7.28;;;31.50;99.90;;;;;;5079152;28;20223;-63
2023/06/22 10:30:08;;;;;;;8.45;7.63;;;31.70;99.90;;;;;;5089426;28;20263;-63
2023/06/22 10:32:38;;;;;;;8.80;7.45;;;31.90;99.90;;;;;;5077701;28;20235;-63
2023/06/22 10:35:07;;;;;;;8.55;7.75;;;32.10;99.90;;;;;;5083632;28;20207;-63
2023/06/22 10:37:35;;;;;;;8.57;7.65;;;32.20;99.90;;;;;;5072618;28;20197;-63
2023/06/22 10:40:03;;;;;;;8.52;7.72;;;32.20;99.90;;;;;;5089289;28;20286;-63
2023/06/22 10:42:31;;;;;;;8.73;7.82;;;32.40;99.90;;;;;;5078458;28;20740;-63
2023/06/22 10:44:59;;;;;;;9.98;7.65;;;32.50;99.90;;;;;;5089540;28;20258;-62
2023/06/22 10:47:27;;;;;;;10.35;7.38;;;32.50;99.90;;;;;;5082604;28;20204;-63
2023/06/22 10:49:56;;;;;;;9.70;7.80;;;32.50;99.90;;;;;;5072324;28;20233;-62
2023/06/22 10:52:24;;;;;;;14.35;8.05;;;32.60;99.90;;;;;;5079659;28;20200;-63
2023/06/22 10:54:53;;;;;;;10.73;7.88;;;32.70;99.90;;;;;;5072379;28;20422;-62
2023/06/22 10:57:20;;;;;;;11.32;7.40;;;32.70;99.90;;;;;;5082964;28;20269;-61
2023/06/22 10:59:48;;;;;;;10.13;7.65;;;32.60;99.90;;;;;;5077664;28;20256;-62
2023/06/22 11:02:17;;;;;;;8.25;7.40;;;32.70;99.90;;;;;;5088908;28;20254;-62
2023/06/22 11:04:45;;;;;;;8.70;7.40;;;32.40;99.90;;;;;;5077929;28;20226;-62
2023/06/22 11:07:16;;;;;;;7.60;6.90;;;32.20;99.90;;;;;;5082329;28;20196;-63
2023/06/22 11:09:44;;;;;;;13.95;7.95;;;31.90;99.90;;;;;;5086173;28;20228;-63
2023/06/22 11:12:12;;;;;;;12.15;7.43;;;31.80;99.90;;;;;;5075732;28;20204;-62
2023/06/22 11:14:40;;;;;;;14.25;7.68;;;31.60;99.90;;;;;;5086740;28;20280;-61
2023/06/22 11:17:08;;;;;;;10.43;7.15;;;31.60;99.90;;;;;;5081476;28;20192;-62
2023/06/22 11:19:36;;;;;;;9.65;7.88;;;31.80;99.90;;;;;;5078716;28;20708;-63
2023/06/22 11:22:04;;;;;;;10.77;8.05;;;31.90;99.90;;;;;;5088485;28;20203;-62
2023/06/22 11:24:34;;;;;;;12.00;8.25;;;32.00;99.90;;;;;;5075352;28;20303;-62
2023/06/22 11:27:02;;;;;;;8.07;7.28;;;32.20;99.90;;;;;;5083900;28;20236;-63
2023/06/22 11:29:30;;;;;;;13.35;7.78;;;32.40;99.90;;;;;;5084080;28;20224;-62
2023/06/22 11:32:06;;;;;;;14.52;8.15;;;32.60;99.90;;;;;;5075344;28;20204;-62
2023/06/22 11:34:34;;;;;;;12.23;7.90;;;32.80;99.90;;;;;;5086337;28;20192;-61
2023/06/22 11:37:02;;;;;;;13.65;7.75;;;32.70;99.90;;;;;;5071617;28;20224;-62
2023/06/22 11:39:30;;;;;;;8.85;7.95;;;32.40;99.90;;;;;;5083563;28;20254;-62
2023/06/22 11:42:11;;;;;;;12.52;8.32;;;32.20;99.90;;;;;;5075133;28;20232;-62
2023/06/22 11:44:39;;;;;;;11.93;8.88;;;32.20;99.90;;;;;;5086143;28;20220;-62
2023/06/22 11:47:07;;;;;;;9.68;7.82;;;32.20;99.90;;;;;;5080651;28;20328;-63
2023/06/22 11:49:35;;;;;;;11.63;7.53;;;32.50;99.90;;;;;;5078706;28;20228;-63
2023/06/22 11:52:03;;;;;;;11.15;8.15;;;32.90;99.90;;;;;;5088020;28;20316;-62
2023/06/22 11:54:31;;;;;;;9.23;8.00;;;33.40;99.90;;;;;;5074704;28;20196;-62
2023/06/22 11:56:59;;;;;;;9.82;8.40;;;33.80;99.90;;;;;;5083664;28;20243;-62
2023/06/22 11:59:28;;;;;;;9.63;8.25;;;33.90;99.90;;;;;;5083268;28;20286;-62
2023/06/22 12:01:58;;;;;;;13.82;8.38;;;33.80;99.90;;;;;;5074856;28;20652;-62
2023/06/22 12:04:25;;;;;;;12.30;8.45;;;33.90;99.90;;;;;;5072126;28;20224;-62
2023/06/22 12:06:53;;;;;;;20.50;8.73;;;33.90;99.90;;;;;;5074916;28;20208;-62
2023/06/22 12:09:21;;;;;;;8.85;7.95;;;33.70;99.90;;;;;;5071200;28;20260;-62
2023/06/22 12:11:49;;;;;;;9.50;8.57;;;34.00;99.90;;;;;;5072795;28;20254;-63
2023/06/22 12:14:17;;;;;;;9.48;7.78;;;34.20;99.90;;;;;;5070990;28;20663;-63
2023/06/22 12:16:46;;;;;;;8.75;7.85;;;34.50;99.90;;;;;;5071057;28;20197;-63
2023/06/22 12:19:14;;;;;;;13.07;8.52;;;34.80;99.90;;;;;;5081418;28;20227;-63
2023/06/22 12:21:45;;;;;;;12.02;8.85;;;35.00;99.90;;;;;;5077484;28;20208;-62
2023/06/22 12:24:13;;;;;;;11.10;8.98;;;35.20;99.90;;;;;;5087637;28;20262;-62
2023/06/22 12:26:41;;;;;;;9.50;8.57;;;35.20;99.90;;;;;;5076485;28;20204;-63
2023/06/22 12:29:09;;;;;;;9.40;8.32;;;35.00;99.90;;;;;;5074840;28;20997;-63
2023/06/22 12:31:38;;;;;;;11.18;9.00;;;35.00;99.90;;;;;;5070172;28;20236;-63
2023/06/22 12:34:08;;;;;;;11.82;9.00;;;34.60;99.90;;;;;;5070702;28;20200;-63
2023/06/22 12:36:36;;;;;;;10.73;8.77;;;34.50;99.90;;;;;;5070745;28;20197;-62
2023/06/22 12:39:04;;;;;;;13.23;9.05;;;34.30;99.90;;;;;;5074297;28;20263;-63
2023/06/22 12:41:32;;;;;;;11.70;8.68;;;34.20;99.90;;;;;;5071094;28;20637;-63
2023/06/22 12:44:00;;;;;;;10.90;8.23;;;34.30;99.90;;;;;;5070061;28;20219;-63
2023/06/22 12:46:28;;;;;;;13.63;8.45;;;34.40;99.90;;;;;;5070333;28;20208;-63
2023/06/22 12:48:55;;;;;;;12.88;8.48;;;34.30;99.90;;;;;;5071791;28;20252;-63